sensor_id;sensor_type;location;lat;lon;timestamp;pressure;altitude;pressure_sealevel;temperature;humidity
37792;BME280;29527;55.766;37.570;2022-07-09T00:01:57;99904.75;;;20.14;54.44
37792;BME280;29527;55.766;37.570;2022-07-09T00:04:23;99907.31;;;20.16;54.25
37792;BME280;29527;55.766;37.570;2022-07-09T00:06:48;99907.47;;;20.14;55.07
37792;BME280;29527;55.766;37.570;2022-07-09T00:09:14;99903.06;;;20.13;54.45
37792;BME280;29527;55.766;37.570;2022-07-09T00:11:39;99903.44;;;20.10;55.42
37792;BME280;29527;55.766;37.570;2022-07-09T00:14:05;99915.53;;;20.07;55.35
37792;BME280;29527;55.766;37.570;2022-07-09T00:16:30;99912.16;;;20.05;55.74
37792;BME280;29527;55.766;37.570;2022-07-09T00:18:55;99903.72;;;20.00;56.05
37792;BME280;29527;55.766;37.570;2022-07-09T00:21:21;99905.78;;;19.98;55.49
37792;BME280;29527;55.766;37.570;2022-07-09T00:23:46;99898.00;;;19.95;55.68
37792;BME280;29527;55.766;37.570;2022-07-09T00:26:12;99898.16;;;19.93;55.81
37792;BME280;29527;55.766;37.570;2022-07-09T00:28:37;99910.91;;;19.93;55.43
37792;BME280;29527;55.766;37.570;2022-07-09T00:31:03;99906.81;;;19.89;56.25
37792;BME280;29527;55.766;37.570;2022-07-09T00:33:29;99905.34;;;19.86;56.70
37792;BME280;29527;55.766;37.570;2022-07-09T00:35:54;99896.69;;;19.83;56.33
37792;BME280;29527;55.766;37.570;2022-07-09T00:38:20;99903.81;;;19.84;56.33
37792;BME280;29527;55.766;37.570;2022-07-09T00:40:45;99900.44;;;19.82;56.15
37792;BME280;29527;55.766;37.570;2022-07-09T00:43:21;99906.50;;;19.92;56.62
37792;BME280;29527;55.766;37.570;2022-07-09T00:45:47;99902.69;;;19.78;56.16
37792;BME280;29527;55.766;37.570;2022-07-09T00:48:13;99899.59;;;19.81;56.42
37792;BME280;29527;55.766;37.570;2022-07-09T00:50:41;99906.06;;;19.80;57.08
37792;BME280;29527;55.766;37.570;2022-07-09T00:53:09;99910.16;;;19.76;57.30
37792;BME280;29527;55.766;37.570;2022-07-09T00:55:37;99906.97;;;19.72;57.22
37792;BME280;29527;55.766;37.570;2022-07-09T00:58:03;99904.13;;;19.65;57.43
37792;BME280;29527;55.766;37.570;2022-07-09T01:00:29;99907.16;;;19.71;57.21
37792;BME280;29527;55.766;37.570;2022-07-09T01:02:56;99907.34;;;19.69;57.32
37792;BME280;29527;55.766;37.570;2022-07-09T01:05:21;99909.19;;;19.69;57.33
37792;BME280;29527;55.766;37.570;2022-07-09T01:07:47;99904.78;;;19.68;57.47
37792;BME280;29527;55.766;37.570;2022-07-09T01:10:13;99905.81;;;19.67;57.95
37792;BME280;29527;55.766;37.570;2022-07-09T01:12:39;99908.53;;;19.67;58.14
37792;BME280;29527;55.766;37.570;2022-07-09T01:15:05;99918.22;;;19.69;57.91
37792;BME280;29527;55.766;37.570;2022-07-09T01:17:41;99913.56;;;19.78;57.92
37792;BME280;29527;55.766;37.570;2022-07-09T01:20:08;99910.53;;;19.73;58.03
37792;BME280;29527;55.766;37.570;2022-07-09T01:22:34;99895.97;;;19.65;57.85
37792;BME280;29527;55.766;37.570;2022-07-09T01:25:05;99906.06;;;19.80;57.41
37792;BME280;29527;55.766;37.570;2022-07-09T01:27:35;99906.41;;;19.77;57.89
37792;BME280;29527;55.766;37.570;2022-07-09T01:30:03;99914.22;;;19.80;57.88
37792;BME280;29527;55.766;37.570;2022-07-09T01:32:29;99918.63;;;19.81;57.95
37792;BME280;29527;55.766;37.570;2022-07-09T01:34:55;99912.09;;;19.90;57.59
37792;BME280;29527;55.766;37.570;2022-07-09T01:37:20;99910.72;;;19.94;58.04
37792;BME280;29527;55.766;37.570;2022-07-09T01:39:46;99905.56;;;20.00;57.33
37792;BME280;29527;55.766;37.570;2022-07-09T01:42:20;99902.50;;;20.03;57.31
37792;BME280;29527;55.766;37.570;2022-07-09T01:44:47;99912.66;;;20.24;56.72
37792;BME280;29527;55.766;37.570;2022-07-09T01:47:13;99905.34;;;20.25;57.17
37792;BME280;29527;55.766;37.570;2022-07-09T01:49:42;99906.75;;;20.35;56.51
37792;BME280;29527;55.766;37.570;2022-07-09T01:52:08;99906.41;;;20.39;56.08
37792;BME280;29527;55.766;37.570;2022-07-09T01:54:34;99888.69;;;20.43;56.63
37792;BME280;29527;55.766;37.570;2022-07-09T01:56:59;99895.06;;;20.50;56.69
37792;BME280;29527;55.766;37.570;2022-07-09T01:59:25;99892.97;;;20.52;56.78
37792;BME280;29527;55.766;37.570;2022-07-09T02:01:50;99896.34;;;20.54;56.83
37792;BME280;29527;55.766;37.570;2022-07-09T02:04:16;99903.59;;;20.62;56.56
37792;BME280;29527;55.766;37.570;2022-07-09T02:06:41;99894.66;;;20.68;56.97
37792;BME280;29527;55.766;37.570;2022-07-09T02:09:06;99890.91;;;20.69;57.28
37792;BME280;29527;55.766;37.570;2022-07-09T02:11:32;99895.22;;;20.78;56.38
37792;BME280;29527;55.766;37.570;2022-07-09T02:13:57;99901.81;;;20.84;56.10
37792;BME280;29527;55.766;37.570;2022-07-09T02:16:23;99907.34;;;20.91;56.39
37792;BME280;29527;55.766;37.570;2022-07-09T02:18:49;99903.09;;;21.03;55.86
37792;BME280;29527;55.766;37.570;2022-07-09T02:21:16;99903.25;;;21.17;55.12
37792;BME280;29527;55.766;37.570;2022-07-09T02:23:41;99900.88;;;21.29;54.80
37792;BME280;29527;55.766;37.570;2022-07-09T02:26:07;99894.47;;;21.36;54.46
37792;BME280;29527;55.766;37.570;2022-07-09T02:28:32;99870.34;;;21.33;54.35
37792;BME280;29527;55.766;37.570;2022-07-09T02:30:58;99907.81;;;21.68;54.85
37792;BME280;29527;55.766;37.570;2022-07-09T02:33:23;99903.97;;;21.84;54.04
37792;BME280;29527;55.766;37.570;2022-07-09T02:35:49;99900.50;;;21.97;52.94
37792;BME280;29527;55.766;37.570;2022-07-09T02:38:14;99909.53;;;22.26;52.69
37792;BME280;29527;55.766;37.570;2022-07-09T02:40:40;99907.47;;;22.57;51.56
37792;BME280;29527;55.766;37.570;2022-07-09T02:43:05;99913.06;;;22.84;49.86
37792;BME280;29527;55.766;37.570;2022-07-09T02:45:31;99913.34;;;23.02;49.81
37792;BME280;29527;55.766;37.570;2022-07-09T02:47:56;99914.25;;;23.16;48.70
37792;BME280;29527;55.766;37.570;2022-07-09T02:50:22;99919.16;;;23.28;49.18
37792;BME280;29527;55.766;37.570;2022-07-09T02:52:47;99915.38;;;23.29;48.13
37792;BME280;29527;55.766;37.570;2022-07-09T02:55:13;99897.00;;;23.09;49.15
37792;BME280;29527;55.766;37.570;2022-07-09T02:57:39;99924.72;;;23.06;49.40
37792;BME280;29527;55.766;37.570;2022-07-09T03:00:05;99924.47;;;22.94;48.98
37792;BME280;29527;55.766;37.570;2022-07-09T03:02:30;99918.38;;;22.92;49.54
37792;BME280;29527;55.766;37.570;2022-07-09T03:04:56;99918.75;;;22.89;49.38
37792;BME280;29527;55.766;37.570;2022-07-09T03:07:22;99920.03;;;22.93;49.88
37792;BME280;29527;55.766;37.570;2022-07-09T03:09:48;99925.13;;;23.09;49.37
37792;BME280;29527;55.766;37.570;2022-07-09T03:12:14;99923.56;;;23.35;48.58
37792;BME280;29527;55.766;37.570;2022-07-09T03:14:39;99901.97;;;23.54;48.20
37792;BME280;29527;55.766;37.570;2022-07-09T03:17:05;99925.16;;;23.99;46.85
37792;BME280;29527;55.766;37.570;2022-07-09T03:19:30;99918.00;;;24.18;46.53
37792;BME280;29527;55.766;37.570;2022-07-09T03:21:56;99920.53;;;24.33;45.88
37792;BME280;29527;55.766;37.570;2022-07-09T03:24:21;99928.53;;;24.41;45.59
37792;BME280;29527;55.766;37.570;2022-07-09T03:26:47;99915.22;;;24.51;45.60
37792;BME280;29527;55.766;37.570;2022-07-09T03:29:12;99910.34;;;24.74;44.92
37792;BME280;29527;55.766;37.570;2022-07-09T03:31:38;99887.94;;;25.04;44.23
37792;BME280;29527;55.766;37.570;2022-07-09T03:34:03;99901.00;;;25.41;43.54
37792;BME280;29527;55.766;37.570;2022-07-09T03:36:31;99885.38;;;25.41;42.88
37792;BME280;29527;55.766;37.570;2022-07-09T03:38:56;99913.22;;;25.77;42.38
37792;BME280;29527;55.766;37.570;2022-07-09T03:41:22;99883.88;;;25.84;41.75
37792;BME280;29527;55.766;37.570;2022-07-09T03:43:48;99915.31;;;26.32;40.89
37792;BME280;29527;55.766;37.570;2022-07-09T03:46:13;99913.97;;;26.60;39.98
37792;BME280;29527;55.766;37.570;2022-07-09T03:48:39;99893.75;;;26.73;39.15
37792;BME280;29527;55.766;37.570;2022-07-09T03:51:04;99880.75;;;26.69;39.11
37792;BME280;29527;55.766;37.570;2022-07-09T03:53:30;99882.63;;;26.49;38.98
37792;BME280;29527;55.766;37.570;2022-07-09T03:55:55;99844.59;;;26.09;39.67
37792;BME280;29527;55.766;37.570;2022-07-09T03:58:21;99847.16;;;25.85;39.89
37792;BME280;29527;55.766;37.570;2022-07-09T04:00:46;99871.47;;;25.75;40.32
37792;BME280;29527;55.766;37.570;2022-07-09T04:03:12;99859.81;;;25.54;40.91
37792;BME280;29527;55.766;37.570;2022-07-09T04:05:37;99870.06;;;25.33;41.13
37792;BME280;29527;55.766;37.570;2022-07-09T04:08:03;99891.28;;;25.06;42.36
37792;BME280;29527;55.766;37.570;2022-07-09T04:10:28;99868.22;;;24.82;42.53
37792;BME280;29527;55.766;37.570;2022-07-09T04:12:54;99899.25;;;25.14;42.34
37792;BME280;29527;55.766;37.570;2022-07-09T04:15:20;99885.06;;;25.63;40.64
37792;BME280;29527;55.766;37.570;2022-07-09T04:17:46;99887.03;;;26.06;40.52
37792;BME280;29527;55.766;37.570;2022-07-09T04:20:11;99875.00;;;26.33;39.43
37792;BME280;29527;55.766;37.570;2022-07-09T04:22:37;99883.28;;;27.19;38.25
37792;BME280;29527;55.766;37.570;2022-07-09T04:25:02;99895.91;;;27.82;36.42
37792;BME280;29527;55.766;37.570;2022-07-09T04:27:28;99896.91;;;28.83;34.81
37792;BME280;29527;55.766;37.570;2022-07-09T04:29:54;99886.25;;;30.64;31.99
37792;BME280;29527;55.766;37.570;2022-07-09T04:32:20;99890.72;;;32.40;28.58
37792;BME280;29527;55.766;37.570;2022-07-09T04:34:46;99889.78;;;33.83;26.04
37792;BME280;29527;55.766;37.570;2022-07-09T04:37:11;99888.75;;;34.86;24.57
37792;BME280;29527;55.766;37.570;2022-07-09T04:39:37;99894.34;;;35.76;23.22
37792;BME280;29527;55.766;37.570;2022-07-09T04:42:02;99889.81;;;36.69;22.07
37792;BME280;29527;55.766;37.570;2022-07-09T04:44:28;99890.81;;;37.02;20.96
37792;BME280;29527;55.766;37.570;2022-07-09T04:46:53;99895.19;;;37.47;20.84
37792;BME280;29527;55.766;37.570;2022-07-09T04:49:19;99908.16;;;37.76;20.06
37792;BME280;29527;55.766;37.570;2022-07-09T04:51:46;99900.53;;;38.15;19.47
37792;BME280;29527;55.766;37.570;2022-07-09T04:54:11;99891.47;;;38.65;18.86
37792;BME280;29527;55.766;37.570;2022-07-09T04:56:37;99887.16;;;39.24;18.16
37792;BME280;29527;55.766;37.570;2022-07-09T04:59:02;99888.72;;;39.53;17.39
37792;BME280;29527;55.766;37.570;2022-07-09T05:01:28;99895.28;;;38.97;17.85
37792;BME280;29527;55.766;37.570;2022-07-09T05:03:55;99881.16;;;38.88;18.07
37792;BME280;29527;55.766;37.570;2022-07-09T05:06:20;99876.00;;;39.69;17.40
37792;BME280;29527;55.766;37.570;2022-07-09T05:08:46;99877.25;;;40.49;16.67
37792;BME280;29527;55.766;37.570;2022-07-09T05:11:14;99880.25;;;40.53;16.58
37792;BME280;29527;55.766;37.570;2022-07-09T05:13:39;99867.81;;;41.12;15.85
37792;BME280;29527;55.766;37.570;2022-07-09T05:16:08;99876.94;;;41.61;15.36
37792;BME280;29527;55.766;37.570;2022-07-09T05:18:34;99881.22;;;41.50;15.47
37792;BME280;29527;55.766;37.570;2022-07-09T05:21:00;99878.41;;;41.50;15.20
37792;BME280;29527;55.766;37.570;2022-07-09T05:23:26;99873.63;;;41.42;15.13
37792;BME280;29527;55.766;37.570;2022-07-09T05:25:52;99865.34;;;39.80;16.19
37792;BME280;29527;55.766;37.570;2022-07-09T05:28:18;99872.00;;;38.60;17.17
37792;BME280;29527;55.766;37.570;2022-07-09T05:30:44;99861.44;;;39.22;16.68
37792;BME280;29527;55.766;37.570;2022-07-09T05:33:10;99869.44;;;40.05;16.33
37792;BME280;29527;55.766;37.570;2022-07-09T05:35:36;99880.91;;;38.62;16.90
37792;BME280;29527;55.766;37.570;2022-07-09T05:38:01;99877.16;;;37.58;18.15
37792;BME280;29527;55.766;37.570;2022-07-09T05:40:27;99869.53;;;37.06;18.77
37792;BME280;29527;55.766;37.570;2022-07-09T05:42:52;99871.00;;;37.04;18.93
37792;BME280;29527;55.766;37.570;2022-07-09T05:45:18;99863.69;;;36.84;19.09
37792;BME280;29527;55.766;37.570;2022-07-09T05:47:44;99870.16;;;36.06;19.87
37792;BME280;29527;55.766;37.570;2022-07-09T05:50:10;99864.91;;;35.25;20.79
37792;BME280;29527;55.766;37.570;2022-07-09T05:52:35;99862.41;;;35.28;20.84
37792;BME280;29527;55.766;37.570;2022-07-09T05:55:01;99861.38;;;35.59;20.84
37792;BME280;29527;55.766;37.570;2022-07-09T05:57:28;99869.13;;;35.17;20.88
37792;BME280;29527;55.766;37.570;2022-07-09T05:59:54;99867.38;;;34.76;21.35
37792;BME280;29527;55.766;37.570;2022-07-09T06:02:21;99860.28;;;35.10;21.26
37792;BME280;29527;55.766;37.570;2022-07-09T06:04:46;99851.31;;;35.63;20.64
37792;BME280;29527;55.766;37.570;2022-07-09T06:07:12;99862.69;;;35.67;20.67
37792;BME280;29527;55.766;37.570;2022-07-09T06:09:39;99860.13;;;34.85;21.47
37792;BME280;29527;55.766;37.570;2022-07-09T06:12:04;99868.41;;;34.14;22.24
37792;BME280;29527;55.766;37.570;2022-07-09T06:14:30;99851.75;;;33.88;22.67
37792;BME280;29527;55.766;37.570;2022-07-09T06:16:56;99837.84;;;35.35;21.18
37792;BME280;29527;55.766;37.570;2022-07-09T06:19:22;99839.22;;;37.71;18.43
37792;BME280;29527;55.766;37.570;2022-07-09T06:21:48;99838.34;;;37.90;18.13
37792;BME280;29527;55.766;37.570;2022-07-09T06:24:13;99815.22;;;37.37;18.86
37792;BME280;29527;55.766;37.570;2022-07-09T06:26:39;99830.22;;;38.63;17.21
37792;BME280;29527;55.766;37.570;2022-07-09T06:29:04;99818.09;;;40.86;15.26
37792;BME280;29527;55.766;37.570;2022-07-09T06:31:30;99839.59;;;41.26;15.12
37792;BME280;29527;55.766;37.570;2022-07-09T06:33:56;99838.69;;;40.23;15.70
37792;BME280;29527;55.766;37.570;2022-07-09T06:36:23;99839.00;;;38.99;17.05
37792;BME280;29527;55.766;37.570;2022-07-09T06:38:49;99838.50;;;37.66;18.09
37792;BME280;29527;55.766;37.570;2022-07-09T06:41:33;99837.59;;;36.50;19.21
37792;BME280;29527;55.766;37.570;2022-07-09T06:43:58;99824.31;;;35.24;21.06
37792;BME280;29527;55.766;37.570;2022-07-09T06:46:24;99836.72;;;34.15;22.04
37792;BME280;29527;55.766;37.570;2022-07-09T06:48:49;99851.69;;;33.26;23.21
37792;BME280;29527;55.766;37.570;2022-07-09T06:51:15;99839.53;;;32.53;24.62
37792;BME280;29527;55.766;37.570;2022-07-09T06:53:40;99824.53;;;32.01;24.93
37792;BME280;29527;55.766;37.570;2022-07-09T06:56:06;99839.91;;;31.81;25.60
37792;BME280;29527;55.766;37.570;2022-07-09T06:58:31;99830.91;;;31.63;25.78
37792;BME280;29527;55.766;37.570;2022-07-09T07:00:57;99833.56;;;31.86;25.65
37792;BME280;29527;55.766;37.570;2022-07-09T07:03:22;99828.53;;;32.20;24.84
37792;BME280;29527;55.766;37.570;2022-07-09T07:05:48;99796.84;;;32.01;25.08
37792;BME280;29527;55.766;37.570;2022-07-09T07:08:13;99825.97;;;32.08;25.58
37792;BME280;29527;55.766;37.570;2022-07-09T07:10:39;99800.44;;;32.55;24.87
37792;BME280;29527;55.766;37.570;2022-07-09T07:13:04;99801.94;;;34.33;23.04
37792;BME280;29527;55.766;37.570;2022-07-09T07:15:30;99806.63;;;38.00;18.73
37792;BME280;29527;55.766;37.570;2022-07-09T07:17:55;99807.94;;;39.46;17.12
37792;BME280;29527;55.766;37.570;2022-07-09T07:20:21;99814.63;;;38.99;17.65
37792;BME280;29527;55.766;37.570;2022-07-09T07:22:50;99803.63;;;38.24;18.26
37792;BME280;29527;55.766;37.570;2022-07-09T07:25:16;99824.56;;;37.66;18.67
37792;BME280;29527;55.766;37.570;2022-07-09T07:27:41;99795.16;;;36.77;19.85
37792;BME280;29527;55.766;37.570;2022-07-09T07:30:07;99827.75;;;35.80;20.68
37792;BME280;29527;55.766;37.570;2022-07-09T07:32:32;99822.63;;;34.77;21.71
37792;BME280;29527;55.766;37.570;2022-07-09T07:34:58;99833.44;;;33.82;22.48
37792;BME280;29527;55.766;37.570;2022-07-09T07:37:24;99823.94;;;33.16;23.76
37792;BME280;29527;55.766;37.570;2022-07-09T07:39:49;99831.53;;;32.57;23.95
37792;BME280;29527;55.766;37.570;2022-07-09T07:42:15;99833.88;;;31.89;25.09
37792;BME280;29527;55.766;37.570;2022-07-09T07:44:41;99845.31;;;31.11;26.18
37792;BME280;29527;55.766;37.570;2022-07-09T07:47:07;99822.53;;;30.31;27.16
37792;BME280;29527;55.766;37.570;2022-07-09T07:49:32;99835.78;;;29.78;28.23
37792;BME280;29527;55.766;37.570;2022-07-09T07:51:58;99831.56;;;29.24;28.89
37792;BME280;29527;55.766;37.570;2022-07-09T07:54:23;99839.53;;;28.79;30.83
37792;BME280;29527;55.766;37.570;2022-07-09T07:56:49;99811.88;;;28.21;32.54
37792;BME280;29527;55.766;37.570;2022-07-09T07:59:16;99845.81;;;28.03;34.53
37792;BME280;29527;55.766;37.570;2022-07-09T08:01:41;99833.22;;;27.72;36.26
37792;BME280;29527;55.766;37.570;2022-07-09T08:04:07;99843.88;;;27.56;36.26
37792;BME280;29527;55.766;37.570;2022-07-09T08:06:32;99845.59;;;27.39;36.58
37792;BME280;29527;55.766;37.570;2022-07-09T08:08:58;99854.50;;;27.22;35.55
37792;BME280;29527;55.766;37.570;2022-07-09T08:11:23;99833.75;;;26.96;34.94
37792;BME280;29527;55.766;37.570;2022-07-09T08:13:49;99856.31;;;26.98;36.42
37792;BME280;29527;55.766;37.570;2022-07-09T08:16:14;99854.88;;;26.95;37.78
37792;BME280;29527;55.766;37.570;2022-07-09T08:18:40;99856.41;;;26.91;37.40
37792;BME280;29527;55.766;37.570;2022-07-09T08:21:05;99863.09;;;26.95;38.47
37792;BME280;29527;55.766;37.570;2022-07-09T08:23:31;99872.66;;;26.92;39.04
37792;BME280;29527;55.766;37.570;2022-07-09T08:25:56;99866.19;;;26.87;38.66
37792;BME280;29527;55.766;37.570;2022-07-09T08:28:22;99879.31;;;26.85;39.36
37792;BME280;29527;55.766;37.570;2022-07-09T08:30:47;99882.09;;;26.78;39.91
37792;BME280;29527;55.766;37.570;2022-07-09T08:33:13;99866.63;;;26.65;39.95
37792;BME280;29527;55.766;37.570;2022-07-09T08:35:38;99858.09;;;26.36;41.01
37792;BME280;29527;55.766;37.570;2022-07-09T08:38:04;99844.59;;;26.09;41.85
37792;BME280;29527;55.766;37.570;2022-07-09T08:40:30;99875.59;;;26.16;41.83
37792;BME280;29527;55.766;37.570;2022-07-09T08:42:57;99873.47;;;26.12;41.06
37792;BME280;29527;55.766;37.570;2022-07-09T08:45:26;99851.88;;;25.97;41.36
37792;BME280;29527;55.766;37.570;2022-07-09T08:47:53;99859.91;;;25.98;41.65
37792;BME280;29527;55.766;37.570;2022-07-09T08:50:20;99862.50;;;25.93;40.54
37792;BME280;29527;55.766;37.570;2022-07-09T08:52:46;99841.09;;;25.76;40.69
37792;BME280;29527;55.766;37.570;2022-07-09T08:55:16;99844.97;;;25.69;41.24
37792;BME280;29527;55.766;37.570;2022-07-09T08:57:41;99855.19;;;25.80;39.93
37792;BME280;29527;55.766;37.570;2022-07-09T09:00:07;99866.09;;;25.87;40.77
37792;BME280;29527;55.766;37.570;2022-07-09T09:02:38;99857.31;;;26.03;40.06
37792;BME280;29527;55.766;37.570;2022-07-09T09:05:15;99871.09;;;26.22;39.30
37792;BME280;29527;55.766;37.570;2022-07-09T09:07:41;99853.78;;;26.21;39.56
37792;BME280;29527;55.766;37.570;2022-07-09T09:10:07;99849.59;;;26.37;39.64
37792;BME280;29527;55.766;37.570;2022-07-09T09:12:32;99847.72;;;26.57;39.83
37792;BME280;29527;55.766;37.570;2022-07-09T09:14:58;99855.31;;;26.73;39.57
37792;BME280;29527;55.766;37.570;2022-07-09T09:17:25;99848.47;;;26.83;40.20
37792;BME280;29527;55.766;37.570;2022-07-09T09:19:50;99846.09;;;26.86;40.03
37792;BME280;29527;55.766;37.570;2022-07-09T09:22:17;99844.41;;;26.85;40.30
37792;BME280;29527;55.766;37.570;2022-07-09T09:24:43;99848.03;;;26.86;40.91
37792;BME280;29527;55.766;37.570;2022-07-09T09:27:13;99811.84;;;26.70;40.87
37792;BME280;29527;55.766;37.570;2022-07-09T09:29:49;99845.53;;;26.96;40.90
37792;BME280;29527;55.766;37.570;2022-07-09T09:32:19;99845.78;;;26.94;40.48
37792;BME280;29527;55.766;37.570;2022-07-09T09:34:49;99817.84;;;26.79;40.91
37792;BME280;29527;55.766;37.570;2022-07-09T09:37:24;99831.38;;;26.80;41.27
37792;BME280;29527;55.766;37.570;2022-07-09T09:39:50;99804.94;;;26.49;42.03
37792;BME280;29527;55.766;37.570;2022-07-09T09:42:16;99819.09;;;26.64;42.10
37792;BME280;29527;55.766;37.570;2022-07-09T09:44:42;99821.16;;;26.69;41.87
37792;BME280;29527;55.766;37.570;2022-07-09T09:47:09;99813.75;;;26.70;41.99
37792;BME280;29527;55.766;37.570;2022-07-09T09:49:37;99823.91;;;26.50;42.12
37792;BME280;29527;55.766;37.570;2022-07-09T09:54:34;99805.75;;;26.12;43.45
37792;BME280;29527;55.766;37.570;2022-07-09T09:57:00;99797.00;;;25.78;43.03
37792;BME280;29527;55.766;37.570;2022-07-09T09:59:26;99789.28;;;25.68;44.02
37792;BME280;29527;55.766;37.570;2022-07-09T10:01:52;99792.31;;;25.60;44.34
37792;BME280;29527;55.766;37.570;2022-07-09T10:04:17;99762.91;;;25.42;45.09
37792;BME280;29527;55.766;37.570;2022-07-09T10:06:44;99786.44;;;25.56;44.33
37792;BME280;29527;55.766;37.570;2022-07-09T10:09:14;99782.47;;;25.77;44.91
37792;BME280;29527;55.766;37.570;2022-07-09T10:11:44;99788.84;;;25.90;43.59
37792;BME280;29527;55.766;37.570;2022-07-09T10:16:54;99781.38;;;26.41;43.73
37792;BME280;29527;55.766;37.570;2022-07-09T10:19:27;99776.16;;;26.70;44.17
37792;BME280;29527;55.766;37.570;2022-07-09T10:21:55;99755.81;;;26.59;42.38
37792;BME280;29527;55.766;37.570;2022-07-09T10:24:37;99771.38;;;26.96;43.23
37792;BME280;29527;55.766;37.570;2022-07-09T10:27:06;99774.38;;;26.94;41.96
37792;BME280;29527;55.766;37.570;2022-07-09T10:29:33;99757.63;;;26.65;41.90
37792;BME280;29527;55.766;37.570;2022-07-09T10:31:59;99773.41;;;26.70;42.01
37792;BME280;29527;55.766;37.570;2022-07-09T10:37:01;99761.47;;;26.76;41.29
37792;BME280;29527;55.766;37.570;2022-07-09T10:39:28;99756.56;;;26.97;40.32
37792;BME280;29527;55.766;37.570;2022-07-09T10:42:04;99758.91;;;27.36;40.21
37792;BME280;29527;55.766;37.570;2022-07-09T10:44:35;99757.31;;;27.71;39.61
37792;BME280;29527;55.766;37.570;2022-07-09T10:47:01;99738.78;;;27.90;38.50
37792;BME280;29527;55.766;37.570;2022-07-09T10:49:27;99740.44;;;28.03;38.93
37792;BME280;29527;55.766;37.570;2022-07-09T10:51:59;99738.50;;;28.15;39.15
37792;BME280;29527;55.766;37.570;2022-07-09T10:54:25;99738.97;;;28.12;38.95
37792;BME280;29527;55.766;37.570;2022-07-09T10:56:52;99733.09;;;28.20;38.73
37792;BME280;29527;55.766;37.570;2022-07-09T10:59:19;99739.06;;;28.29;37.65
37792;BME280;29527;55.766;37.570;2022-07-09T11:01:45;99733.00;;;28.15;36.31
37792;BME280;29527;55.766;37.570;2022-07-09T11:04:11;99713.19;;;27.65;37.06
37792;BME280;29527;55.766;37.570;2022-07-09T11:06:46;99704.91;;;27.77;36.73
37792;BME280;29527;55.766;37.570;2022-07-09T11:09:15;99706.59;;;27.67;36.93
37792;BME280;29527;55.766;37.570;2022-07-09T11:11:44;99698.03;;;27.51;35.65
37792;BME280;29527;55.766;37.570;2022-07-09T11:14:10;99696.31;;;27.14;33.19
37792;BME280;29527;55.766;37.570;2022-07-09T11:16:37;99691.59;;;26.91;33.05
37792;BME280;29527;55.766;37.570;2022-07-09T11:19:15;99688.41;;;26.75;33.92
37792;BME280;29527;55.766;37.570;2022-07-09T11:21:41;99679.22;;;26.39;33.08
37792;BME280;29527;55.766;37.570;2022-07-09T11:24:19;99671.31;;;26.31;33.85
37792;BME280;29527;55.766;37.570;2022-07-09T11:26:47;99671.25;;;26.00;33.67
37792;BME280;29527;55.766;37.570;2022-07-09T11:29:12;99671.84;;;25.84;34.62
37792;BME280;29527;55.766;37.570;2022-07-09T11:31:49;99673.31;;;25.86;35.10
37792;BME280;29527;55.766;37.570;2022-07-09T11:34:19;99652.50;;;25.78;35.06
37792;BME280;29527;55.766;37.570;2022-07-09T11:36:45;99666.44;;;25.96;35.48
37792;BME280;29527;55.766;37.570;2022-07-09T11:39:29;99672.28;;;26.36;35.13
37792;BME280;29527;55.766;37.570;2022-07-09T11:41:57;99638.81;;;26.28;34.93
37792;BME280;29527;55.766;37.570;2022-07-09T11:49:41;99645.03;;;26.04;37.11
37792;BME280;29527;55.766;37.570;2022-07-09T11:54:58;99641.28;;;25.99;38.18
37792;BME280;29527;55.766;37.570;2022-07-09T11:57:23;99625.97;;;25.91;39.22
37792;BME280;29527;55.766;37.570;2022-07-09T11:59:49;99628.84;;;26.15;39.09
37792;BME280;29527;55.766;37.570;2022-07-09T12:02:31;99631.06;;;26.55;38.27
37792;BME280;29527;55.766;37.570;2022-07-09T12:05:03;99637.28;;;26.62;39.04
37792;BME280;29527;55.766;37.570;2022-07-09T12:07:29;99601.72;;;26.56;39.54
37792;BME280;29527;55.766;37.570;2022-07-09T12:10:09;99633.53;;;26.87;39.24
37792;BME280;29527;55.766;37.570;2022-07-09T12:12:36;99626.75;;;26.59;39.42
37792;BME280;29527;55.766;37.570;2022-07-09T12:15:03;99626.09;;;26.33;40.51
37792;BME280;29527;55.766;37.570;2022-07-09T12:17:30;99591.38;;;26.08;41.74
37792;BME280;29527;55.766;37.570;2022-07-09T12:19:58;99614.13;;;26.28;41.72
37792;BME280;29527;55.766;37.570;2022-07-09T12:22:25;99613.56;;;26.37;41.71
37792;BME280;29527;55.766;37.570;2022-07-09T12:24:52;99615.31;;;26.62;41.58
37792;BME280;29527;55.766;37.570;2022-07-09T12:27:18;99613.94;;;26.84;41.13
37792;BME280;29527;55.766;37.570;2022-07-09T12:29:45;99616.06;;;26.82;40.70
37792;BME280;29527;55.766;37.570;2022-07-09T12:32:11;99613.06;;;26.83;40.53
37792;BME280;29527;55.766;37.570;2022-07-09T12:34:36;99608.00;;;26.87;39.90
37792;BME280;29527;55.766;37.570;2022-07-09T12:37:02;99606.69;;;27.01;37.97
37792;BME280;29527;55.766;37.570;2022-07-09T12:39:27;99606.31;;;27.10;37.26
37792;BME280;29527;55.766;37.570;2022-07-09T12:41:53;99593.88;;;27.19;36.07
37792;BME280;29527;55.766;37.570;2022-07-09T12:44:18;99592.69;;;27.27;36.13
37792;BME280;29527;55.766;37.570;2022-07-09T12:46:44;99570.50;;;27.04;35.58
37792;BME280;29527;55.766;37.570;2022-07-09T12:49:09;99583.84;;;27.25;35.07
37792;BME280;29527;55.766;37.570;2022-07-09T12:51:35;99588.38;;;27.43;35.62
37792;BME280;29527;55.766;37.570;2022-07-09T12:54:00;99578.22;;;27.43;35.48
37792;BME280;29527;55.766;37.570;2022-07-09T12:56:26;99575.56;;;27.48;35.70
37792;BME280;29527;55.766;37.570;2022-07-09T12:58:52;99577.38;;;27.55;35.76
37792;BME280;29527;55.766;37.570;2022-07-09T13:01:18;99572.94;;;27.65;35.50
37792;BME280;29527;55.766;37.570;2022-07-09T13:03:43;99565.38;;;27.73;35.09